sensor_id;sensor_type;location;lat;lon;timestamp;P1;durP1;ratioP1;P2;durP2;ratioP2
27796;SDS011;15177;50.844;4.412;2023-07-22T00:00:35;15.25;;;8.93;;
27796;SDS011;15177;50.844;4.412;2023-07-22T00:03:06;14.63;;;9.93;;
27796;SDS011;15177;50.844;4.412;2023-07-22T00:05:35;17.35;;;10.45;;
27796;SDS011;15177;50.844;4.412;2023-07-22T00:08:01;13.65;;;9.02;;
27796;SDS011;15177;50.844;4.412;2023-07-22T00:10:34;16.98;;;9.57;;
27796;SDS011;15177;50.844;4.412;2023-07-22T00:13:00;16.92;;;9.50;;
27796;SDS011;15177;50.844;4.412;2023-07-22T00:15:31;17.10;;;9.18;;
27796;SDS011;15177;50.844;4.412;2023-07-22T00:17:59;14.95;;;9.25;;
27796;SDS011;15177;50.844;4.412;2023-07-22T00:20:33;17.75;;;10.38;;
27796;SDS011;15177;50.844;4.412;2023-07-22T00:23:01;17.90;;;9.77;;
27796;SDS011;15177;50.844;4.412;2023-07-22T00:25:34;13.45;;;8.90;;
27796;SDS011;15177;50.844;4.412;2023-07-22T00:28:13;16.38;;;9.77;;
27796;SDS011;15177;50.844;4.412;2023-07-22T00:30:39;15.20;;;9.93;;
27796;SDS011;15177;50.844;4.412;2023-07-22T00:33:06;20.15;;;10.25;;
27796;SDS011;15177;50.844;4.412;2023-07-22T00:35:33;15.63;;;9.38;;
27796;SDS011;15177;50.844;4.412;2023-07-22T00:38:01;17.50;;;9.50;;
27796;SDS011;15177;50.844;4.412;2023-07-22T00:40:38;14.80;;;9.10;;
27796;SDS011;15177;50.844;4.412;2023-07-22T00:43:04;18.35;;;8.80;;
27796;SDS011;15177;50.844;4.412;2023-07-22T00:45:32;15.55;;;9.15;;
27796;SDS011;15177;50.844;4.412;2023-07-22T00:48:01;17.73;;;9.32;;
27796;SDS011;15177;50.844;4.412;2023-07-22T00:50:30;17.75;;;9.30;;
27796;SDS011;15177;50.844;4.412;2023-07-22T00:53:00;16.27;;;10.13;;
27796;SDS011;15177;50.844;4.412;2023-07-22T00:55:26;17.60;;;9.82;;
27796;SDS011;15177;50.844;4.412;2023-07-22T00:58:02;24.83;;;9.80;;
27796;SDS011;15177;50.844;4.412;2023-07-22T01:00:28;15.98;;;9.63;;
27796;SDS011;15177;50.844;4.412;2023-07-22T01:02:54;16.00;;;9.82;;
27796;SDS011;15177;50.844;4.412;2023-07-22T01:05:30;15.35;;;9.43;;
27796;SDS011;15177;50.844;4.412;2023-07-22T01:07:56;15.32;;;9.27;;
27796;SDS011;15177;50.844;4.412;2023-07-22T01:10:22;16.15;;;9.02;;
27796;SDS011;15177;50.844;4.412;2023-07-22T01:12:55;16.85;;;10.57;;
27796;SDS011;15177;50.844;4.412;2023-07-22T01:15:23;13.73;;;9.20;;
27796;SDS011;15177;50.844;4.412;2023-07-22T01:17:53;20.42;;;9.50;;
27796;SDS011;15177;50.844;4.412;2023-07-22T01:20:27;17.50;;;9.82;;
27796;SDS011;15177;50.844;4.412;2023-07-22T01:23:01;21.65;;;10.45;;
27796;SDS011;15177;50.844;4.412;2023-07-22T01:25:27;17.90;;;9.98;;
27796;SDS011;15177;50.844;4.412;2023-07-22T01:27:56;18.65;;;9.23;;
27796;SDS011;15177;50.844;4.412;2023-07-22T01:30:25;19.17;;;10.60;;
27796;SDS011;15177;50.844;4.412;2023-07-22T01:32:53;16.33;;;9.38;;
27796;SDS011;15177;50.844;4.412;2023-07-22T01:35:25;22.98;;;10.98;;
27796;SDS011;15177;50.844;4.412;2023-07-22T01:37:55;20.63;;;11.30;;
27796;SDS011;15177;50.844;4.412;2023-07-22T01:40:21;18.48;;;10.57;;
27796;SDS011;15177;50.844;4.412;2023-07-22T01:42:52;18.83;;;10.48;;
27796;SDS011;15177;50.844;4.412;2023-07-22T01:45:18;23.75;;;11.43;;
27796;SDS011;15177;50.844;4.412;2023-07-22T01:47:49;17.67;;;10.98;;
27796;SDS011;15177;50.844;4.412;2023-07-22T01:50:15;20.00;;;10.32;;
27796;SDS011;15177;50.844;4.412;2023-07-22T01:52:44;20.70;;;10.40;;
27796;SDS011;15177;50.844;4.412;2023-07-22T01:55:11;24.40;;;10.13;;
27796;SDS011;15177;50.844;4.412;2023-07-22T01:57:41;22.08;;;10.80;;
27796;SDS011;15177;50.844;4.412;2023-07-22T02:00:07;18.88;;;11.20;;
27796;SDS011;15177;50.844;4.412;2023-07-22T02:02:38;18.98;;;11.18;;
27796;SDS011;15177;50.844;4.412;2023-07-22T02:05:04;28.80;;;12.63;;
27796;SDS011;15177;50.844;4.412;2023-07-22T02:07:35;22.42;;;10.57;;
27796;SDS011;15177;50.844;4.412;2023-07-22T02:10:01;18.90;;;10.68;;
27796;SDS011;15177;50.844;4.412;2023-07-22T02:12:30;21.38;;;11.73;;
27796;SDS011;15177;50.844;4.412;2023-07-22T02:15:01;21.08;;;10.35;;
27796;SDS011;15177;50.844;4.412;2023-07-22T02:17:29;16.45;;;10.43;;
27796;SDS011;15177;50.844;4.412;2023-07-22T02:20:00;23.45;;;11.25;;
27796;SDS011;15177;50.844;4.412;2023-07-22T02:22:37;21.25;;;10.73;;
27796;SDS011;15177;50.844;4.412;2023-07-22T02:25:02;22.05;;;10.82;;
27796;SDS011;15177;50.844;4.412;2023-07-22T02:27:40;18.77;;;10.73;;
27796;SDS011;15177;50.844;4.412;2023-07-22T02:30:08;22.85;;;10.82;;
27796;SDS011;15177;50.844;4.412;2023-07-22T02:32:43;20.33;;;11.50;;
27796;SDS011;15177;50.844;4.412;2023-07-22T02:35:10;22.63;;;11.68;;
27796;SDS011;15177;50.844;4.412;2023-07-22T02:37:38;21.13;;;10.60;;
27796;SDS011;15177;50.844;4.412;2023-07-22T02:40:07;23.20;;;12.50;;
27796;SDS011;15177;50.844;4.412;2023-07-22T02:42:36;22.98;;;12.60;;
27796;SDS011;15177;50.844;4.412;2023-07-22T02:45:05;28.58;;;12.27;;
27796;SDS011;15177;50.844;4.412;2023-07-22T02:47:33;24.92;;;12.15;;
27796;SDS011;15177;50.844;4.412;2023-07-22T02:50:06;27.02;;;12.75;;
27796;SDS011;15177;50.844;4.412;2023-07-22T02:52:38;22.33;;;12.40;;
27796;SDS011;15177;50.844;4.412;2023-07-22T02:57:39;23.30;;;12.55;;
27796;SDS011;15177;50.844;4.412;2023-07-22T03:00:08;28.48;;;14.25;;
27796;SDS011;15177;50.844;4.412;2023-07-22T03:02:39;28.38;;;13.80;;
27796;SDS011;15177;50.844;4.412;2023-07-22T03:05:11;27.33;;;12.60;;
27796;SDS011;15177;50.844;4.412;2023-07-22T03:07:39;28.92;;;14.10;;
27796;SDS011;15177;50.844;4.412;2023-07-22T03:10:05;22.67;;;13.30;;
27796;SDS011;15177;50.844;4.412;2023-07-22T03:12:34;26.88;;;13.50;;
27796;SDS011;15177;50.844;4.412;2023-07-22T03:15:08;32.70;;;12.98;;
27796;SDS011;15177;50.844;4.412;2023-07-22T03:17:40;28.98;;;14.85;;
27796;SDS011;15177;50.844;4.412;2023-07-22T03:20:10;27.48;;;14.52;;
27796;SDS011;15177;50.844;4.412;2023-07-22T03:22:42;28.00;;;14.48;;
27796;SDS011;15177;50.844;4.412;2023-07-22T03:25:09;28.63;;;14.02;;
27796;SDS011;15177;50.844;4.412;2023-07-22T03:27:35;28.30;;;13.23;;
27796;SDS011;15177;50.844;4.412;2023-07-22T03:30:11;30.50;;;13.73;;
27796;SDS011;15177;50.844;4.412;2023-07-22T03:32:46;29.98;;;14.77;;
27796;SDS011;15177;50.844;4.412;2023-07-22T03:35:21;30.63;;;15.15;;
27796;SDS011;15177;50.844;4.412;2023-07-22T03:37:50;30.83;;;15.00;;
27796;SDS011;15177;50.844;4.412;2023-07-22T03:40:23;30.85;;;15.20;;
27796;SDS011;15177;50.844;4.412;2023-07-22T03:42:58;27.60;;;14.07;;
27796;SDS011;15177;50.844;4.412;2023-07-22T03:45:25;26.70;;;14.05;;
27796;SDS011;15177;50.844;4.412;2023-07-22T03:47:58;25.27;;;13.02;;
27796;SDS011;15177;50.844;4.412;2023-07-22T03:50:28;26.52;;;13.25;;
27796;SDS011;15177;50.844;4.412;2023-07-22T03:52:54;22.35;;;12.55;;
27796;SDS011;15177;50.844;4.412;2023-07-22T03:55:24;23.80;;;12.15;;
27796;SDS011;15177;50.844;4.412;2023-07-22T03:57:53;37.90;;;15.10;;
27796;SDS011;15177;50.844;4.412;2023-07-22T04:00:20;29.73;;;14.38;;
27796;SDS011;15177;50.844;4.412;2023-07-22T04:02:49;27.90;;;13.77;;
27796;SDS011;15177;50.844;4.412;2023-07-22T04:05:15;22.25;;;12.82;;
27796;SDS011;15177;50.844;4.412;2023-07-22T04:07:41;31.48;;;13.95;;
27796;SDS011;15177;50.844;4.412;2023-07-22T04:10:09;34.47;;;13.70;;
27796;SDS011;15177;50.844;4.412;2023-07-22T04:12:35;29.20;;;12.40;;
27796;SDS011;15177;50.844;4.412;2023-07-22T04:15:00;30.58;;;14.45;;
27796;SDS011;15177;50.844;4.412;2023-07-22T04:17:26;26.60;;;13.35;;
27796;SDS011;15177;50.844;4.412;2023-07-22T04:19:55;27.23;;;13.93;;
27796;SDS011;15177;50.844;4.412;2023-07-22T04:22:21;26.02;;;12.38;;
27796;SDS011;15177;50.844;4.412;2023-07-22T04:24:52;24.42;;;12.35;;
27796;SDS011;15177;50.844;4.412;2023-07-22T04:27:25;36.00;;;13.48;;
27796;SDS011;15177;50.844;4.412;2023-07-22T04:29:52;29.75;;;13.50;;
27796;SDS011;15177;50.844;4.412;2023-07-22T04:32:24;26.85;;;13.50;;
27796;SDS011;15177;50.844;4.412;2023-07-22T04:34:53;28.52;;;12.55;;
27796;SDS011;15177;50.844;4.412;2023-07-22T04:37:20;26.85;;;13.02;;
27796;SDS011;15177;50.844;4.412;2023-07-22T04:39:54;27.40;;;13.15;;
27796;SDS011;15177;50.844;4.412;2023-07-22T04:42:39;31.33;;;13.32;;
27796;SDS011;15177;50.844;4.412;2023-07-22T04:45:08;24.48;;;12.52;;
27796;SDS011;15177;50.844;4.412;2023-07-22T04:47:43;24.17;;;12.95;;
27796;SDS011;15177;50.844;4.412;2023-07-22T04:50:13;25.45;;;11.93;;
27796;SDS011;15177;50.844;4.412;2023-07-22T04:52:41;26.85;;;13.05;;
27796;SDS011;15177;50.844;4.412;2023-07-22T04:55:12;26.08;;;12.40;;
27796;SDS011;15177;50.844;4.412;2023-07-22T04:57:43;25.15;;;12.07;;
27796;SDS011;15177;50.844;4.412;2023-07-22T05:00:12;22.25;;;12.20;;
27796;SDS011;15177;50.844;4.412;2023-07-22T05:02:41;25.52;;;12.70;;
27796;SDS011;15177;50.844;4.412;2023-07-22T05:05:13;23.08;;;12.07;;
27796;SDS011;15177;50.844;4.412;2023-07-22T05:07:40;27.35;;;10.68;;
27796;SDS011;15177;50.844;4.412;2023-07-22T05:10:10;26.15;;;13.20;;
27796;SDS011;15177;50.844;4.412;2023-07-22T05:12:48;26.95;;;11.38;;
27796;SDS011;15177;50.844;4.412;2023-07-22T05:15:14;26.75;;;11.52;;
27796;SDS011;15177;50.844;4.412;2023-07-22T05:17:42;31.80;;;12.57;;
27796;SDS011;15177;50.844;4.412;2023-07-22T05:20:18;18.10;;;11.05;;
27796;SDS011;15177;50.844;4.412;2023-07-22T05:22:47;25.02;;;11.90;;
27796;SDS011;15177;50.844;4.412;2023-07-22T05:25:21;26.38;;;11.95;;
27796;SDS011;15177;50.844;4.412;2023-07-22T05:27:49;25.13;;;10.95;;
27796;SDS011;15177;50.844;4.412;2023-07-22T05:30:17;22.00;;;10.82;;
27796;SDS011;15177;50.844;4.412;2023-07-22T05:32:51;22.23;;;11.98;;
27796;SDS011;15177;50.844;4.412;2023-07-22T05:35:21;21.90;;;10.70;;
27796;SDS011;15177;50.844;4.412;2023-07-22T05:37:56;18.38;;;9.93;;
27796;SDS011;15177;50.844;4.412;2023-07-22T05:40:25;19.80;;;9.82;;
27796;SDS011;15177;50.844;4.412;2023-07-22T05:42:53;24.00;;;10.10;;
27796;SDS011;15177;50.844;4.412;2023-07-22T05:45:25;22.08;;;9.20;;
27796;SDS011;15177;50.844;4.412;2023-07-22T05:47:54;22.98;;;9.55;;
27796;SDS011;15177;50.844;4.412;2023-07-22T05:50:20;17.27;;;8.75;;
27796;SDS011;15177;50.844;4.412;2023-07-22T05:52:46;15.15;;;8.73;;
27796;SDS011;15177;50.844;4.412;2023-07-22T05:55:13;23.52;;;9.23;;
27796;SDS011;15177;50.844;4.412;2023-07-22T05:57:41;17.63;;;8.18;;
27796;SDS011;15177;50.844;4.412;2023-07-22T06:00:15;18.23;;;8.38;;
27796;SDS011;15177;50.844;4.412;2023-07-22T06:02:46;16.83;;;9.10;;
27796;SDS011;15177;50.844;4.412;2023-07-22T06:05:16;20.85;;;9.07;;
27796;SDS011;15177;50.844;4.412;2023-07-22T06:07:42;20.45;;;7.55;;
27796;SDS011;15177;50.844;4.412;2023-07-22T06:10:13;21.77;;;7.88;;
27796;SDS011;15177;50.844;4.412;2023-07-22T06:12:39;18.95;;;7.93;;
27796;SDS011;15177;50.844;4.412;2023-07-22T06:15:06;20.55;;;7.72;;
27796;SDS011;15177;50.844;4.412;2023-07-22T06:17:35;13.93;;;7.93;;
27796;SDS011;15177;50.844;4.412;2023-07-22T06:20:09;21.95;;;7.63;;
27796;SDS011;15177;50.844;4.412;2023-07-22T06:22:41;14.27;;;8.02;;
27796;SDS011;15177;50.844;4.412;2023-07-22T06:25:07;18.35;;;8.18;;
27796;SDS011;15177;50.844;4.412;2023-07-22T06:27:40;16.48;;;7.60;;
27796;SDS011;15177;50.844;4.412;2023-07-22T06:30:17;20.52;;;8.82;;
27796;SDS011;15177;50.844;4.412;2023-07-22T06:32:43;22.08;;;7.80;;
27796;SDS011;15177;50.844;4.412;2023-07-22T06:35:12;14.88;;;7.05;;
27796;SDS011;15177;50.844;4.412;2023-07-22T06:37:45;22.25;;;7.68;;
27796;SDS011;15177;50.844;4.412;2023-07-22T06:40:12;20.00;;;8.45;;
27796;SDS011;15177;50.844;4.412;2023-07-22T06:42:40;19.33;;;7.13;;
27796;SDS011;15177;50.844;4.412;2023-07-22T06:45:22;14.10;;;7.18;;
27796;SDS011;15177;50.844;4.412;2023-07-22T06:47:47;17.67;;;6.30;;
27796;SDS011;15177;50.844;4.412;2023-07-22T06:50:16;18.00;;;7.20;;
27796;SDS011;15177;50.844;4.412;2023-07-22T06:52:45;14.43;;;7.28;;
27796;SDS011;15177;50.844;4.412;2023-07-22T06:55:11;17.80;;;6.72;;
27796;SDS011;15177;50.844;4.412;2023-07-22T06:57:48;16.35;;;7.05;;
27796;SDS011;15177;50.844;4.412;2023-07-22T07:00:14;18.27;;;7.70;;
27796;SDS011;15177;50.844;4.412;2023-07-22T07:02:40;15.30;;;6.72;;
27796;SDS011;15177;50.844;4.412;2023-07-22T07:05:10;18.48;;;6.70;;
27796;SDS011;15177;50.844;4.412;2023-07-22T07:07:36;13.10;;;6.60;;
27796;SDS011;15177;50.844;4.412;2023-07-22T07:10:02;19.20;;;8.25;;
27796;SDS011;15177;50.844;4.412;2023-07-22T07:12:32;14.32;;;7.32;;
27796;SDS011;15177;50.844;4.412;2023-07-22T07:14:58;16.35;;;6.78;;
27796;SDS011;15177;50.844;4.412;2023-07-22T07:17:30;13.23;;;6.65;;
27796;SDS011;15177;50.844;4.412;2023-07-22T07:19:56;15.77;;;7.32;;
27796;SDS011;15177;50.844;4.412;2023-07-22T07:22:22;19.20;;;7.10;;
27796;SDS011;15177;50.844;4.412;2023-07-22T07:24:50;15.45;;;6.32;;
27796;SDS011;15177;50.844;4.412;2023-07-22T07:27:16;12.05;;;6.40;;
27796;SDS011;15177;50.844;4.412;2023-07-22T07:29:44;12.43;;;5.43;;
27796;SDS011;15177;50.844;4.412;2023-07-22T07:32:10;13.85;;;6.35;;
27796;SDS011;15177;50.844;4.412;2023-07-22T07:34:39;15.50;;;5.93;;
27796;SDS011;15177;50.844;4.412;2023-07-22T07:37:07;11.85;;;5.15;;
27796;SDS011;15177;50.844;4.412;2023-07-22T07:39:36;13.85;;;6.15;;
27796;SDS011;15177;50.844;4.412;2023-07-22T07:42:05;15.40;;;6.40;;
27796;SDS011;15177;50.844;4.412;2023-07-22T07:44:36;11.95;;;5.97;;
27796;SDS011;15177;50.844;4.412;2023-07-22T07:47:02;15.70;;;6.07;;
27796;SDS011;15177;50.844;4.412;2023-07-22T07:49:36;10.00;;;5.22;;
27796;SDS011;15177;50.844;4.412;2023-07-22T07:52:05;14.90;;;5.50;;
27796;SDS011;15177;50.844;4.412;2023-07-22T07:54:34;19.85;;;6.03;;
27796;SDS011;15177;50.844;4.412;2023-07-22T07:57:00;15.32;;;5.57;;
27796;SDS011;15177;50.844;4.412;2023-07-22T07:59:26;17.10;;;6.00;;
27796;SDS011;15177;50.844;4.412;2023-07-22T08:01:55;10.20;;;4.70;;
27796;SDS011;15177;50.844;4.412;2023-07-22T08:04:37;17.58;;;6.32;;
27796;SDS011;15177;50.844;4.412;2023-07-22T08:07:09;15.38;;;5.50;;
27796;SDS011;15177;50.844;4.412;2023-07-22T08:09:35;11.40;;;5.03;;
27796;SDS011;15177;50.844;4.412;2023-07-22T08:12:13;13.40;;;5.80;;
27796;SDS011;15177;50.844;4.412;2023-07-22T08:14:42;12.05;;;5.03;;
27796;SDS011;15177;50.844;4.412;2023-07-22T08:17:08;9.85;;;5.07;;
27796;SDS011;15177;50.844;4.412;2023-07-22T08:19:39;14.10;;;5.30;;
27796;SDS011;15177;50.844;4.412;2023-07-22T08:22:08;12.25;;;4.93;;
27796;SDS011;15177;50.844;4.412;2023-07-22T08:24:40;14.13;;;4.20;;
27796;SDS011;15177;50.844;4.412;2023-07-22T08:27:08;10.15;;;4.70;;
27796;SDS011;15177;50.844;4.412;2023-07-22T08:29:37;18.38;;;4.93;;
27796;SDS011;15177;50.844;4.412;2023-07-22T08:32:08;12.77;;;4.88;;
27796;SDS011;15177;50.844;4.412;2023-07-22T08:34:46;7.28;;;4.13;;
27796;SDS011;15177;50.844;4.412;2023-07-22T08:37:12;9.77;;;4.15;;
27796;SDS011;15177;50.844;4.412;2023-07-22T08:39:44;9.02;;;4.30;;
27796;SDS011;15177;50.844;4.412;2023-07-22T08:42:10;11.90;;;4.35;;
27796;SDS011;15177;50.844;4.412;2023-07-22T08:44:48;7.95;;;4.20;;
27796;SDS011;15177;50.844;4.412;2023-07-22T08:47:18;9.50;;;4.03;;
27796;SDS011;15177;50.844;4.412;2023-07-22T08:49:52;10.55;;;4.97;;
27796;SDS011;15177;50.844;4.412;2023-07-22T08:52:38;8.27;;;4.13;;
27796;SDS011;15177;50.844;4.412;2023-07-22T08:55:13;11.32;;;4.13;;
27796;SDS011;15177;50.844;4.412;2023-07-22T08:57:45;10.93;;;4.30;;
27796;SDS011;15177;50.844;4.412;2023-07-22T09:00:16;7.25;;;3.30;;
27796;SDS011;15177;50.844;4.412;2023-07-22T09:02:46;7.97;;;3.65;;
27796;SDS011;15177;50.844;4.412;2023-07-22T09:05:13;12.20;;;3.15;;
27796;SDS011;15177;50.844;4.412;2023-07-22T09:07:39;18.95;;;3.45;;
27796;SDS011;15177;50.844;4.412;2023-07-22T09:10:08;4.40;;;3.15;;
27796;SDS011;15177;50.844;4.412;2023-07-22T09:12:44;6.20;;;3.22;;
27796;SDS011;15177;50.844;4.412;2023-07-22T09:15:10;6.65;;;3.20;;
27796;SDS011;15177;50.844;4.412;2023-07-22T09:17:39;9.07;;;2.67;;
27796;SDS011;15177;50.844;4.412;2023-07-22T09:20:06;5.57;;;2.47;;
27796;SDS011;15177;50.844;4.412;2023-07-22T09:22:49;4.60;;;2.30;;
27796;SDS011;15177;50.844;4.412;2023-07-22T09:25:33;9.52;;;2.45;;
27796;SDS011;15177;50.844;4.412;2023-07-22T09:28:07;7.88;;;2.63;;
27796;SDS011;15177;50.844;4.412;2023-07-22T09:30:38;9.65;;;2.75;;
27796;SDS011;15177;50.844;4.412;2023-07-22T09:33:22;7.43;;;2.28;;
27796;SDS011;15177;50.844;4.412;2023-07-22T09:35:49;4.25;;;2.03;;
27796;SDS011;15177;50.844;4.412;2023-07-22T09:38:24;4.13;;;2.58;;
27796;SDS011;15177;50.844;4.412;2023-07-22T09:40:50;4.45;;;2.20;;
27796;SDS011;15177;50.844;4.412;2023-07-22T09:43:17;6.82;;;2.75;;
27796;SDS011;15177;50.844;4.412;2023-07-22T09:45:49;7.22;;;2.35;;
27796;SDS011;15177;50.844;4.412;2023-07-22T09:48:21;4.53;;;2.30;;
27796;SDS011;15177;50.844;4.412;2023-07-22T09:50:55;7.43;;;2.63;;
27796;SDS011;15177;50.844;4.412;2023-07-22T09:53:27;4.47;;;2.22;;
27796;SDS011;15177;50.844;4.412;2023-07-22T09:55:53;4.68;;;1.85;;
27796;SDS011;15177;50.844;4.412;2023-07-22T09:58:37;5.25;;;1.70;;
27796;SDS011;15177;50.844;4.412;2023-07-22T10:01:10;5.03;;;2.20;;
27796;SDS011;15177;50.844;4.412;2023-07-22T10:03:43;2.20;;;1.70;;
27796;SDS011;15177;50.844;4.412;2023-07-22T10:06:11;4.13;;;2.05;;
27796;SDS011;15177;50.844;4.412;2023-07-22T10:08:51;5.10;;;1.77;;
27796;SDS011;15177;50.844;4.412;2023-07-22T10:11:29;4.65;;;2.17;;
27796;SDS011;15177;50.844;4.412;2023-07-22T10:13:57;4.53;;;1.77;;
27796;SDS011;15177;50.844;4.412;2023-07-22T10:16:40;3.53;;;1.48;;
27796;SDS011;15177;50.844;4.412;2023-07-22T10:19:24;5.22;;;1.80;;
27796;SDS011;15177;50.844;4.412;2023-07-22T10:21:51;4.75;;;1.90;;
27796;SDS011;15177;50.844;4.412;2023-07-22T10:24:17;4.07;;;1.77;;
27796;SDS011;15177;50.844;4.412;2023-07-22T10:26:44;1.98;;;1.67;;
27796;SDS011;15177;50.844;4.412;2023-07-22T10:29:16;3.05;;;1.95;;
27796;SDS011;15177;50.844;4.412;2023-07-22T10:31:45;3.67;;;1.63;;
27796;SDS011;15177;50.844;4.412;2023-07-22T10:34:13;3.60;;;1.70;;
27796;SDS011;15177;50.844;4.412;2023-07-22T10:36:42;3.03;;;1.40;;
27796;SDS011;15177;50.844;4.412;2023-07-22T10:39:38;3.42;;;1.90;;
27796;SDS011;15177;50.844;4.412;2023-07-22T10:42:06;3.42;;;1.42;;
27796;SDS011;15177;50.844;4.412;2023-07-22T10:44:35;4.07;;;1.75;;
27796;SDS011;15177;50.844;4.412;2023-07-22T10:47:04;3.78;;;1.95;;
27796;SDS011;15177;50.844;4.412;2023-07-22T10:49:42;5.43;;;1.63;;
27796;SDS011;15177;50.844;4.412;2023-07-22T10:52:14;4.97;;;1.75;;
27796;SDS011;15177;50.844;4.412;2023-07-22T10:55:19;3.85;;;1.88;;
27796;SDS011;15177;50.844;4.412;2023-07-22T10:57:51;4.22;;;1.65;;
27796;SDS011;15177;50.844;4.412;2023-07-22T11:00:19;2.47;;;1.90;;
27796;SDS011;15177;50.844;4.412;2023-07-22T11:02:46;3.63;;;1.90;;
27796;SDS011;15177;50.844;4.412;2023-07-22T11:05:51;7.70;;;1.67;;
27796;SDS011;15177;50.844;4.412;2023-07-22T11:11:19;4.30;;;1.90;;
27796;SDS011;15177;50.844;4.412;2023-07-22T11:13:48;5.70;;;1.92;;
27796;SDS011;15177;50.844;4.412;2023-07-22T11:16:19;5.28;;;2.05;;
27796;SDS011;15177;50.844;4.412;2023-07-22T11:18:48;4.55;;;1.80;;
27796;SDS011;15177;50.844;4.412;2023-07-22T11:21:13;5.70;;;2.22;;
27796;SDS011;15177;50.844;4.412;2023-07-22T11:23:39;4.90;;;2.83;;
27796;SDS011;15177;50.844;4.412;2023-07-22T11:26:05;3.70;;;2.10;;
27796;SDS011;15177;50.844;4.412;2023-07-22T11:28:36;4.50;;;2.03;;
27796;SDS011;15177;50.844;4.412;2023-07-22T11:31:02;3.05;;;1.90;;
27796;SDS011;15177;50.844;4.412;2023-07-22T11:33:40;4.97;;;2.30;;
27796;SDS011;15177;50.844;4.412;2023-07-22T11:36:08;2.65;;;1.80;;
27796;SDS011;15177;50.844;4.412;2023-07-22T11:38:34;4.43;;;1.65;;
27796;SDS011;15177;50.844;4.412;2023-07-22T11:41:02;6.47;;;2.20;;
27796;SDS011;15177;50.844;4.412;2023-07-22T11:43:27;3.15;;;1.98;;
27796;SDS011;15177;50.844;4.412;2023-07-22T11:45:59;3.97;;;1.90;;
27796;SDS011;15177;50.844;4.412;2023-07-22T11:48:25;3.45;;;2.05;;
27796;SDS011;15177;50.844;4.412;2023-07-22T11:50:51;3.90;;;2.03;;
27796;SDS011;15177;50.844;4.412;2023-07-22T11:53:17;3.63;;;2.05;;
27796;SDS011;15177;50.844;4.412;2023-07-22T11:55:43;4.55;;;2.20;;
27796;SDS011;15177;50.844;4.412;2023-07-22T11:58:09;4.18;;;1.80;;
27796;SDS011;15177;50.844;4.412;2023-07-22T12:00:35;5.22;;;2.20;;
27796;SDS011;15177;50.844;4.412;2023-07-22T12:03:06;4.63;;;2.33;;
27796;SDS011;15177;50.844;4.412;2023-07-22T12:05:41;5.93;;;2.30;;
27796;SDS011;15177;50.844;4.412;2023-07-22T12:08:14;3.70;;;2.67;;
27796;SDS011;15177;50.844;4.412;2023-07-22T12:10:40;7.80;;;2.22;;
27796;SDS011;15177;50.844;4.412;2023-07-22T12:13:06;4.53;;;2.13;;
27796;SDS011;15177;50.844;4.412;2023-07-22T12:15:32;3.28;;;2.22;;
27796;SDS011;15177;50.844;4.412;2023-07-22T12:18:01;5.65;;;2.53;;
27796;SDS011;15177;50.844;4.412;2023-07-22T12:20:28;6.03;;;2.10;;
27796;SDS011;15177;50.844;4.412;2023-07-22T12:22:56;5.55;;;2.05;;
27796;SDS011;15177;50.844;4.412;2023-07-22T12:25:22;3.55;;;2.05;;
27796;SDS011;15177;50.844;4.412;2023-07-22T12:27:48;7.13;;;2.08;;
27796;SDS011;15177;50.844;4.412;2023-07-22T12:30:17;3.50;;;2.00;;
27796;SDS011;15177;50.844;4.412;2023-07-22T12:32:43;6.38;;;2.20;;
27796;SDS011;15177;50.844;4.412;2023-07-22T12:35:09;3.08;;;2.00;;
27796;SDS011;15177;50.844;4.412;2023-07-22T12:37:36;5.90;;;2.00;;
27796;SDS011;15177;50.844;4.412;2023-07-22T12:40:04;4.07;;;1.90;;
27796;SDS011;15177;50.844;4.412;2023-07-22T12:42:33;5.85;;;1.70;;
27796;SDS011;15177;50.844;4.412;2023-07-22T12:44:59;3.03;;;1.75;;
27796;SDS011;15177;50.844;4.412;2023-07-22T12:47:25;4.15;;;1.75;;
27796;SDS011;15177;50.844;4.412;2023-07-22T12:49:51;2.38;;;1.50;;
27796;SDS011;15177;50.844;4.412;2023-07-22T12:52:17;2.70;;;1.98;;
27796;SDS011;15177;50.844;4.412;2023-07-22T12:54:43;4.18;;;2.65;;
27796;SDS011;15177;50.844;4.412;2023-07-22T12:57:11;4.45;;;2.05;;
27796;SDS011;15177;50.844;4.412;2023-07-22T12:59:37;3.80;;;1.88;;
27796;SDS011;15177;50.844;4.412;2023-07-22T13:02:03;2.85;;;1.60;;
27796;SDS011;15177;50.844;4.412;2023-07-22T13:04:29;3.65;;;1.75;;
27796;SDS011;15177;50.844;4.412;2023-07-22T13:06:59;4.55;;;2.28;;
27796;SDS011;15177;50.844;4.412;2023-07-22T13:09:28;4.88;;;2.17;;
27796;SDS011;15177;50.844;4.412;2023-07-22T13:11:54;6.68;;;1.77;;
27796;SDS011;15177;50.844;4.412;2023-07-22T13:14:20;4.63;;;1.95;;
27796;SDS011;15177;50.844;4.412;2023-07-22T13:16:46;6.25;;;2.00;;
27796;SDS011;15177;50.844;4.412;2023-07-22T13:19:11;4.75;;;1.70;;
27796;SDS011;15177;50.844;4.412;2023-07-22T13:21:43;2.00;;;1.38;;
27796;SDS011;15177;50.844;4.412;2023-07-22T13:24:11;4.50;;;2.13;;
27796;SDS011;15177;50.844;4.412;2023-07-22T13:26:40;3.35;;;1.77;;
27796;SDS011;15177;50.844;4.412;2023-07-22T13:29:09;6.88;;;2.28;;
27796;SDS011;15177;50.844;4.412;2023-07-22T13:31:38;5.00;;;1.60;;
27796;SDS011;15177;50.844;4.412;2023-07-22T13:34:04;2.63;;;1.80;;
27796;SDS011;15177;50.844;4.412;2023-07-22T13:36:30;6.53;;;1.70;;
27796;SDS011;15177;50.844;4.412;2023-07-22T13:39:03;4.38;;;1.77;;
27796;SDS011;15177;50.844;4.412;2023-07-22T13:41:29;4.22;;;1.98;;
27796;SDS011;15177;50.844;4.412;2023-07-22T13:43:55;3.22;;;1.90;;
27796;SDS011;15177;50.844;4.412;2023-07-22T13:46:27;3.30;;;1.83;;
27796;SDS011;15177;50.844;4.412;2023-07-22T13:48:53;3.38;;;2.08;;
27796;SDS011;15177;50.844;4.412;2023-07-22T13:51:19;7.60;;;2.45;;
27796;SDS011;15177;50.844;4.412;2023-07-22T13:53:47;4.30;;;1.95;;
27796;SDS011;15177;50.844;4.412;2023-07-22T13:56:13;6.78;;;2.08;;
27796;SDS011;15177;50.844;4.412;2023-07-22T13:58:39;4.57;;;1.98;;
27796;SDS011;15177;50.844;4.412;2023-07-22T14:01:07;9.50;;;2.22;;
27796;SDS011;15177;50.844;4.412;2023-07-22T14:03:33;4.88;;;2.20;;
27796;SDS011;15177;50.844;4.412;2023-07-22T14:06:01;4.82;;;2.10;;
27796;SDS011;15177;50.844;4.412;2023-07-22T14:08:32;3.78;;;2.03;;
27796;SDS011;15177;50.844;4.412;2023-07-22T14:10:58;3.20;;;2.03;;
27796;SDS011;15177;50.844;4.412;2023-07-22T14:13:24;9.55;;;2.58;;
27796;SDS011;15177;50.844;4.412;2023-07-22T14:15:52;3.33;;;2.03;;
27796;SDS011;15177;50.844;4.412;2023-07-22T14:18:21;8.30;;;2.03;;
27796;SDS011;15177;50.844;4.412;2023-07-22T14:20:46;4.13;;;2.10;;
27796;SDS011;15177;50.844;4.412;2023-07-22T14:23:14;6.47;;;2.00;;
27796;SDS011;15177;50.844;4.412;2023-07-22T14:25:40;5.13;;;2.33;;
27796;SDS011;15177;50.844;4.412;2023-07-22T14:28:06;3.08;;;2.00;;
27796;SDS011;15177;50.844;4.412;2023-07-22T14:30:35;5.05;;;2.22;;
27796;SDS011;15177;50.844;4.412;2023-07-22T14:33:01;3.97;;;2.15;;
27796;SDS011;15177;50.844;4.412;2023-07-22T14:35:26;5.05;;;2.53;;
27796;SDS011;15177;50.844;4.412;2023-07-22T14:37:52;5.55;;;2.28;;
27796;SDS011;15177;50.844;4.412;2023-07-22T14:40:18;6.85;;;1.70;;
27796;SDS011;15177;50.844;4.412;2023-07-22T14:42:45;5.60;;;1.80;;
27796;SDS011;15177;50.844;4.412;2023-07-22T14:45:13;5.15;;;1.67;;
27796;SDS011;15177;50.844;4.412;2023-07-22T14:47:42;5.55;;;1.90;;
27796;SDS011;15177;50.844;4.412;2023-07-22T14:50:08;3.72;;;1.58;;
27796;SDS011;15177;50.844;4.412;2023-07-22T14:52:34;4.88;;;2.42;;
27796;SDS011;15177;50.844;4.412;2023-07-22T14:55:00;8.15;;;1.98;;